Time;durP1;ratioP1;P1;durP2;ratioP2;P2;SDS_P1;SDS_P2;PMS_P1;PMS_P2;Temp;Humidity;BMP_temperature;BMP_pressure;BME280_temperature;BME280_humidity;BME280_pressure;Samples;Min_cycle;Max_cycle;Signal;HPM_P1;HPM_P2
2023/06/15 00:02:19;;;;;;;6.72;4.53;;;;;;;;;;5016902;28;20420;-82
2023/06/15 00:04:45;;;;;;;5.53;4.40;;;;;;;;;;5016898;28;20030;-80
2023/06/15 00:07:10;;;;;;;7.35;4.35;;;;;;;;;;5016809;28;20263;-81
2023/06/15 00:09:35;;;;;;;10.50;4.40;;;;;;;;;;5016769;28;20029;-81
2023/06/15 00:12:00;;;;;;;5.57;4.32;;;;;;;;;;5016940;28;20256;-80
2023/06/15 00:14:26;;;;;;;6.80;4.67;;;;;;;;;;5016696;28;20021;-81
2023/06/15 00:16:52;;;;;;;5.20;4.28;;;;;;;;;;5017353;28;20334;-81
2023/06/15 00:19:20;;;;;;;6.38;4.45;;;;;;;;;;5016662;28;20018;-81
2023/06/15 00:21:47;;;;;;;5.95;4.10;;;;;;;;;;5015424;28;20401;-81
2023/06/15 00:24:16;;;;;;;5.53;4.03;;;;;;;;;;5014841;28;20029;-80
2023/06/15 00:26:42;;;;;;;6.30;4.20;;;;;;;;;;5016087;28;20131;-80
2023/06/15 00:29:07;;;;;;;5.68;4.03;;;;;;;;;;5014727;28;20021;-81
2023/06/15 00:31:34;;;;;;;4.70;3.77;;;;;;;;;;5016522;28;20025;-81
2023/06/15 00:34:00;;;;;;;6.05;3.88;;;;;;;;;;5017683;28;20255;-79
2023/06/15 00:36:25;;;;;;;6.17;3.97;;;;;;;;;;5017795;28;20511;-82
2023/06/15 00:38:50;;;;;;;6.28;4.30;;;;;;;;;;5017376;28;20754;-80
2023/06/15 00:41:15;;;;;;;5.53;3.77;;;;;;;;;;5017088;28;20063;-81
2023/06/15 00:43:41;;;;;;;5.40;3.87;;;;;;;;;;5017853;28;20259;-82
2023/06/15 00:46:07;;;;;;;6.53;4.80;;;;;;;;;;5017727;28;20310;-82
2023/06/15 00:48:33;;;;;;;5.60;4.22;;;;;;;;;;5016074;28;20033;-80
2023/06/15 00:50:59;;;;;;;7.60;4.25;;;;;;;;;;5017023;28;20026;-81
2023/06/15 00:53:24;;;;;;;6.32;4.35;;;;;;;;;;5017075;28;20025;-81
2023/06/15 00:55:51;;;;;;;6.25;4.10;;;;;;;;;;5016093;28;20036;-80
2023/06/15 00:58:17;;;;;;;6.75;4.47;;;;;;;;;;5015138;28;20029;-80
2023/06/15 01:00:48;;;;;;;4.93;4.10;;;;;;;;;;5015587;28;20444;-80
2023/06/15 01:03:15;;;;;;;4.65;3.78;;;;;;;;;;5016606;28;20084;-79
2023/06/15 01:05:44;;;;;;;6.20;4.18;;;;;;;;;;5017069;28;20080;-79
2023/06/15 01:08:10;;;;;;;6.00;4.40;;;;;;;;;;5016989;28;20385;-79
2023/06/15 01:10:36;;;;;;;5.35;4.10;;;;;;;;;;5016638;28;20468;-81
2023/06/15 01:13:03;;;;;;;8.00;4.40;;;;;;;;;;5015791;28;20033;-81
2023/06/15 01:15:28;;;;;;;5.22;4.38;;;;;;;;;;5014517;28;20424;-81
2023/06/15 01:17:58;;;;;;;5.28;4.07;;;;;;;;;;5015977;28;20045;-80
2023/06/15 01:20:32;;;;;;;6.60;3.97;;;;;;;;;;5015874;28;20022;-79
2023/06/15 01:23:19;;;;;;;4.85;4.20;;;;;;;;;;5016714;28;20026;-81
2023/06/15 01:25:44;;;;;;;4.78;3.95;;;;;;;;;;5014550;28;20041;-81
2023/06/15 01:28:11;;;;;;;4.90;4.15;;;;;;;;;;5015519;28;20021;-81
2023/06/15 01:30:44;;;;;;;6.88;4.55;;;;;;;;;;5015666;28;20057;-79
2023/06/15 01:33:14;;;;;;;6.05;4.20;;;;;;;;;;5015965;28;20026;-80
2023/06/15 01:35:40;;;;;;;5.40;4.40;;;;;;;;;;5016586;28;20026;-80
2023/06/15 01:38:05;;;;;;;4.55;3.80;;;;;;;;;;5017731;28;20096;-78
2023/06/15 01:40:34;;;;;;;5.38;4.07;;;;;;;;;;5019509;28;20034;-80
2023/06/15 01:43:00;;;;;;;7.38;4.20;;;;;;;;;;5018584;28;20026;-79
2023/06/15 01:45:27;;;;;;;6.60;4.38;;;;;;;;;;5018424;28;20060;-80
2023/06/15 01:47:53;;;;;;;6.85;4.53;;;;;;;;;;5019697;28;20030;-81
2023/06/15 01:50:19;;;;;;;9.48;4.72;;;;;;;;;;5019862;28;20022;-82
2023/06/15 01:52:45;;;;;;;6.35;4.43;;;;;;;;;;5019156;28;20061;-80
2023/06/15 01:55:11;;;;;;;6.22;4.50;;;;;;;;;;5017522;28;20026;-80
2023/06/15 01:57:38;;;;;;;6.00;4.53;;;;;;;;;;5017737;28;20029;-81
2023/06/15 02:00:05;;;;;;;5.78;4.35;;;;;;;;;;5017748;28;20459;-81
2023/06/15 02:02:31;;;;;;;5.65;4.25;;;;;;;;;;5017463;28;20022;-80
2023/06/15 02:04:56;;;;;;;8.30;4.32;;;;;;;;;;5019729;28;20088;-80
2023/06/15 02:07:22;;;;;;;8.47;3.80;;;;;;;;;;5020242;28;20022;-79
2023/06/15 02:09:47;;;;;;;5.63;4.40;;;;;;;;;;5020931;28;20290;-79
2023/06/15 02:12:12;;;;;;;4.82;4.07;;;;;;;;;;5018715;28;20259;-79
2023/06/15 02:14:37;;;;;;;5.68;4.07;;;;;;;;;;5019507;28;20100;-80
2023/06/15 02:17:03;;;;;;;5.73;4.20;;;;;;;;;;5019652;28;20489;-80
2023/06/15 02:19:28;;;;;;;7.63;4.20;;;;;;;;;;5019225;28;20745;-79
2023/06/15 02:21:54;;;;;;;5.70;4.37;;;;;;;;;;5019163;28;20037;-78
2023/06/15 02:24:19;;;;;;;5.63;4.10;;;;;;;;;;5018184;28;20762;-79
2023/06/15 02:26:46;;;;;;;6.80;3.92;;;;;;;;;;5018810;28;20036;-79
2023/06/15 02:29:11;;;;;;;10.68;4.20;;;;;;;;;;5019136;28;20026;-78
2023/06/15 02:31:39;;;;;;;7.70;4.28;;;;;;;;;;5017944;28;20057;-79
2023/06/15 02:34:05;;;;;;;7.05;3.67;;;;;;;;;;5018885;28;20100;-80
2023/06/15 02:36:31;;;;;;;5.28;4.07;;;;;;;;;;5018478;28;20468;-79
2023/06/15 02:38:58;;;;;;;5.00;4.13;;;;;;;;;;5018520;28;20042;-80
2023/06/15 02:41:23;;;;;;;5.53;3.97;;;;;;;;;;5017122;28;20089;-79
2023/06/15 02:43:49;;;;;;;4.97;3.90;;;;;;;;;;5018270;28;20508;-78
2023/06/15 02:46:14;;;;;;;5.50;4.10;;;;;;;;;;5018177;28;20746;-81
2023/06/15 02:48:40;;;;;;;7.33;4.07;;;;;;;;;;5019261;28;20263;-80
2023/06/15 02:51:06;;;;;;;6.07;4.40;;;;;;;;;;5018480;28;20251;-81
2023/06/15 02:53:31;;;;;;;6.25;4.30;;;;;;;;;;5019356;28;20073;-80
2023/06/15 02:55:57;;;;;;;6.47;4.18;;;;;;;;;;5018996;28;20021;-80
2023/06/15 02:58:24;;;;;;;5.32;4.13;;;;;;;;;;5019050;28;20507;-79
2023/06/15 03:00:50;;;;;;;5.82;4.20;;;;;;;;;;5018721;28;20049;-80
2023/06/15 03:03:26;;;;;;;8.10;4.07;;;;;;;;;;5019220;28;20085;-81
2023/06/15 03:05:51;;;;;;;5.35;4.20;;;;;;;;;;5017126;28;20180;-79
2023/06/15 03:08:18;;;;;;;6.43;4.57;;;;;;;;;;5018729;28;20485;-81
2023/06/15 03:10:44;;;;;;;5.72;4.38;;;;;;;;;;5018439;28;20290;-80
2023/06/15 03:13:10;;;;;;;5.70;4.43;;;;;;;;;;5018560;28;20033;-79
2023/06/15 03:15:36;;;;;;;5.90;4.35;;;;;;;;;;5017361;28;20033;-80
2023/06/15 03:18:01;;;;;;;5.55;4.50;;;;;;;;;;5018670;28;20029;-82
2023/06/15 03:20:32;;;;;;;7.07;4.65;;;;;;;;;;5017833;28;20485;-81
2023/06/15 03:22:57;;;;;;;9.18;4.47;;;;;;;;;;5017194;28;20029;-81
2023/06/15 03:25:22;;;;;;;5.83;4.20;;;;;;;;;;5017578;28;20030;-79
2023/06/15 03:27:48;;;;;;;6.07;4.18;;;;;;;;;;5017848;28;20313;-80
2023/06/15 03:30:14;;;;;;;5.63;4.38;;;;;;;;;;5016616;28;20384;-80
2023/06/15 03:32:39;;;;;;;5.95;4.50;;;;;;;;;;5017264;28;20022;-79
2023/06/15 03:35:06;;;;;;;5.63;4.60;;;;;;;;;;5017247;28;20026;-80
2023/06/15 03:37:31;;;;;;;8.05;4.50;;;;;;;;;;5017219;28;20021;-81
2023/06/15 03:39:56;;;;;;;4.90;4.10;;;;;;;;;;5017499;28;20032;-81
2023/06/15 03:42:22;;;;;;;11.90;4.53;;;;;;;;;;5017194;28;20341;-80
2023/06/15 03:44:47;;;;;;;5.93;4.50;;;;;;;;;;5017446;28;20255;-78
2023/06/15 03:47:12;;;;;;;7.13;4.40;;;;;;;;;;5017315;28;20290;-81
2023/06/15 03:49:37;;;;;;;6.87;4.40;;;;;;;;;;5018911;28;20326;-81
2023/06/15 03:52:03;;;;;;;5.70;4.60;;;;;;;;;;5017108;28;20263;-81
2023/06/15 03:54:28;;;;;;;6.15;4.30;;;;;;;;;;5018399;28;20262;-81
2023/06/15 03:56:53;;;;;;;5.80;4.47;;;;;;;;;;5018395;28;20030;-82
2023/06/15 03:59:18;;;;;;;6.17;4.47;;;;;;;;;;5018044;28;20271;-80
2023/06/15 04:01:44;;;;;;;6.65;4.07;;;;;;;;;;5017252;28;20287;-81
2023/06/15 04:04:10;;;;;;;6.47;4.38;;;;;;;;;;5017204;28;20493;-81
2023/06/15 04:06:35;;;;;;;6.05;4.30;;;;;;;;;;5017676;28;20026;-82
2023/06/15 04:09:01;;;;;;;6.35;4.20;;;;;;;;;;5016800;28;20056;-80
2023/06/15 04:11:26;;;;;;;7.90;4.45;;;;;;;;;;5015219;28;20048;-81
2023/06/15 04:13:52;;;;;;;5.23;4.30;;;;;;;;;;5017059;28;20057;-78
2023/06/15 04:16:17;;;;;;;7.33;4.70;;;;;;;;;;5016097;28;20314;-81
2023/06/15 04:18:42;;;;;;;6.23;4.50;;;;;;;;;;5015424;28;20264;-81
2023/06/15 04:21:07;;;;;;;6.63;4.57;;;;;;;;;;5017195;28;20267;-80
2023/06/15 04:23:32;;;;;;;6.65;4.45;;;;;;;;;;5016563;28;20286;-81
2023/06/15 04:26:00;;;;;;;7.07;4.60;;;;;;;;;;5016441;28;20404;-81
2023/06/15 04:28:25;;;;;;;5.90;4.45;;;;;;;;;;5017080;28;20259;-82
2023/06/15 04:30:54;;;;;;;6.13;4.47;;;;;;;;;;5017307;28;20030;-80
2023/06/15 04:33:20;;;;;;;8.63;5.30;;;;;;;;;;5017222;28;20014;-81
2023/06/15 04:35:46;;;;;;;6.05;4.57;;;;;;;;;;5017332;28;20052;-80
2023/06/15 04:38:15;;;;;;;5.95;4.50;;;;;;;;;;5016901;28;20080;-80
2023/06/15 04:40:46;;;;;;;6.82;4.82;;;;;;;;;;5017504;28;20113;-79
2023/06/15 04:43:11;;;;;;;5.90;4.35;;;;;;;;;;5018121;28;20080;-79
2023/06/15 04:45:36;;;;;;;6.65;4.68;;;;;;;;;;5021203;28;20026;-79
2023/06/15 04:48:02;;;;;;;6.30;4.53;;;;;;;;;;5018938;28;20026;-79
2023/06/15 04:50:29;;;;;;;6.80;4.68;;;;;;;;;;5016457;28;20413;-80
2023/06/15 04:52:55;;;;;;;9.18;4.78;;;;;;;;;;5016767;28;20022;-79
2023/06/15 04:55:20;;;;;;;9.10;4.95;;;;;;;;;;5015281;28;20117;-83
2023/06/15 04:57:46;;;;;;;8.15;4.90;;;;;;;;;;5017872;28;20022;-78
2023/06/15 05:00:13;;;;;;;6.57;4.72;;;;;;;;;;5017102;28;20021;-78
2023/06/15 05:02:38;;;;;;;5.93;4.72;;;;;;;;;;5017661;28;20026;-77
2023/06/15 05:05:04;;;;;;;9.13;5.40;;;;;;;;;;5013595;28;20129;-77
2023/06/15 05:07:29;;;;;;;11.10;5.10;;;;;;;;;;5013324;28;20026;-77
2023/06/15 05:09:55;;;;;;;10.00;5.93;;;;;;;;;;5015762;28;20435;-78
2023/06/15 05:12:20;;;;;;;9.57;6.18;;;;;;;;;;5022950;28;20626;-78
2023/06/15 05:14:45;;;;;;;8.82;5.30;;;;;;;;;;5022947;28;20022;-78
2023/06/15 05:17:10;;;;;;;5.80;4.55;;;;;;;;;;5018537;28;20029;-77
2023/06/15 05:19:36;;;;;;;7.30;4.93;;;;;;;;;;5017611;28;20030;-77
2023/06/15 05:22:02;;;;;;;11.30;5.05;;;;;;;;;;5020051;28;20283;-78
2023/06/15 05:24:27;;;;;;;10.00;4.80;;;;;;;;;;5019297;28;20405;-77
2023/06/15 05:26:52;;;;;;;6.30;4.35;;;;;;;;;;5018981;28;20072;-77
2023/06/15 05:29:19;;;;;;;7.10;4.50;;;;;;;;;;5022017;28;20022;-80
2023/06/15 05:31:44;;;;;;;5.85;4.50;;;;;;;;;;5021475;28;20029;-78
2023/06/15 05:34:10;;;;;;;6.65;4.50;;;;;;;;;;5019713;28;20026;-77
2023/06/15 05:36:35;;;;;;;11.48;4.97;;;;;;;;;;5018858;28;20038;-77
2023/06/15 05:39:01;;;;;;;5.75;4.50;;;;;;;;;;5021656;28;20378;-78
2023/06/15 05:41:26;;;;;;;9.90;4.40;;;;;;;;;;5021450;28;20034;-77
2023/06/15 05:43:51;;;;;;;8.43;4.73;;;;;;;;;;5021800;28;20037;-78
2023/06/15 05:46:17;;;;;;;7.22;4.43;;;;;;;;;;5019457;28;20274;-77
2023/06/15 05:48:42;;;;;;;11.05;4.40;;;;;;;;;;5017165;28;20038;-77
2023/06/15 05:51:07;;;;;;;7.47;4.97;;;;;;;;;;5020138;28;20124;-77
2023/06/15 05:53:32;;;;;;;8.40;4.97;;;;;;;;;;5017786;28;20057;-77
2023/06/15 05:55:57;;;;;;;6.22;5.00;;;;;;;;;;5017403;28;20045;-78
2023/06/15 05:58:23;;;;;;;7.53;4.70;;;;;;;;;;5017941;28;20038;-78
2023/06/15 06:00:48;;;;;;;6.82;5.05;;;;;;;;;;5016946;28;20255;-77
2023/06/15 06:03:13;;;;;;;10.23;4.75;;;;;;;;;;5017076;28;20025;-77
2023/06/15 06:05:39;;;;;;;10.33;4.90;;;;;;;;;;5018403;28;20033;-77
2023/06/15 06:08:04;;;;;;;12.20;5.18;;;;;;;;;;5017228;28;20305;-77
2023/06/15 06:10:30;;;;;;;7.55;4.97;;;;;;;;;;5016986;28;20022;-77
2023/06/15 06:12:55;;;;;;;7.50;5.32;;;;;;;;;;5018574;28;20104;-78
2023/06/15 06:15:21;;;;;;;8.30;5.03;;;;;;;;;;5020433;28;20405;-78
2023/06/15 06:17:46;;;;;;;6.77;4.80;;;;;;;;;;5020781;28;20022;-78
2023/06/15 06:20:12;;;;;;;10.43;5.03;;;;;;;;;;5018387;28;20260;-77
2023/06/15 06:22:37;;;;;;;10.15;5.10;;;;;;;;;;5018170;28;20353;-78
2023/06/15 06:25:03;;;;;;;6.87;5.33;;;;;;;;;;5019821;28;20018;-78
2023/06/15 06:27:28;;;;;;;8.60;5.47;;;;;;;;;;5016224;28;20274;-77
2023/06/15 06:29:54;;;;;;;6.82;5.15;;;;;;;;;;5016867;28;20029;-76
2023/06/15 06:32:19;;;;;;;6.85;5.32;;;;;;;;;;5015134;28;20022;-77
2023/06/15 06:34:44;;;;;;;8.90;5.53;;;;;;;;;;5016202;28;20136;-77
2023/06/15 06:37:09;;;;;;;8.10;5.30;;;;;;;;;;5016299;28;20290;-77
2023/06/15 06:39:34;;;;;;;10.15;5.47;;;;;;;;;;5016511;28;20290;-77
2023/06/15 06:42:00;;;;;;;8.43;5.07;;;;;;;;;;5018654;28;20026;-78
2023/06/15 06:44:26;;;;;;;6.68;4.95;;;;;;;;;;5018354;28;20259;-79
2023/06/15 06:46:51;;;;;;;6.65;4.95;;;;;;;;;;5019956;28;20143;-78
2023/06/15 06:49:16;;;;;;;7.53;5.03;;;;;;;;;;5017400;28;20029;-77
2023/06/15 06:51:41;;;;;;;7.63;5.13;;;;;;;;;;5016361;28;20263;-77
2023/06/15 06:54:07;;;;;;;6.47;4.75;;;;;;;;;;5016392;28;20258;-78
2023/06/15 06:56:32;;;;;;;11.90;5.88;;;;;;;;;;5016340;28;20021;-78
2023/06/15 06:58:57;;;;;;;10.00;5.75;;;;;;;;;;5015710;28;20025;-76
2023/06/15 07:01:23;;;;;;;11.20;5.90;;;;;;;;;;5016794;28;20064;-77
2023/06/15 07:03:48;;;;;;;9.38;5.53;;;;;;;;;;5017317;28;20275;-77
2023/06/15 07:06:14;;;;;;;10.13;5.03;;;;;;;;;;5015792;28;20190;-75
2023/06/15 07:08:39;;;;;;;8.68;5.43;;;;;;;;;;5017127;28;20313;-77
2023/06/15 07:11:05;;;;;;;9.73;4.85;;;;;;;;;;5017282;28;20034;-79
2023/06/15 07:13:30;;;;;;;9.30;5.28;;;;;;;;;;5017778;28;20152;-78
2023/06/15 07:15:57;;;;;;;6.97;4.70;;;;;;;;;;5018047;28;20041;-78
2023/06/15 07:18:23;;;;;;;8.00;5.43;;;;;;;;;;5017286;28;20267;-78
2023/06/15 07:20:53;;;;;;;9.52;5.00;;;;;;;;;;5018246;28;20032;-78
2023/06/15 07:23:23;;;;;;;7.30;4.75;;;;;;;;;;5015382;28;20110;-78
2023/06/15 07:25:51;;;;;;;8.02;5.10;;;;;;;;;;5018568;28;20053;-76
2023/06/15 07:28:17;;;;;;;8.30;5.20;;;;;;;;;;5016366;28;20021;-78
2023/06/15 07:30:44;;;;;;;11.82;5.20;;;;;;;;;;5017037;28;20034;-78
2023/06/15 07:33:10;;;;;;;7.55;5.05;;;;;;;;;;5018329;28;20030;-77
2023/06/15 07:35:35;;;;;;;7.18;5.25;;;;;;;;;;5017460;28;20061;-78
2023/06/15 07:38:01;;;;;;;6.28;4.90;;;;;;;;;;5015258;28;20427;-77
2023/06/15 07:40:26;;;;;;;9.27;4.67;;;;;;;;;;5013608;28;20034;-77
2023/06/15 07:42:51;;;;;;;9.50;5.47;;;;;;;;;;5015084;28;20278;-76
2023/06/15 07:45:16;;;;;;;9.25;5.03;;;;;;;;;;5018005;28;20259;-78
2023/06/15 07:47:42;;;;;;;8.40;5.22;;;;;;;;;;5017049;28;20022;-78
2023/06/15 07:50:07;;;;;;;8.48;5.40;;;;;;;;;;5017629;28;20481;-79
2023/06/15 07:52:33;;;;;;;13.73;4.95;;;;;;;;;;5016470;28;20026;-77
2023/06/15 07:54:59;;;;;;;10.70;5.45;;;;;;;;;;5017061;28;20030;-78
2023/06/15 07:57:24;;;;;;;13.30;5.60;;;;;;;;;;5018088;28;20036;-79
2023/06/15 07:59:49;;;;;;;7.53;5.20;;;;;;;;;;5018922;28;20333;-77
2023/06/15 08:02:14;;;;;;;7.32;5.55;;;;;;;;;;5018669;28;20448;-78
2023/06/15 08:04:40;;;;;;;15.80;5.55;;;;;;;;;;5017847;28;20029;-77
2023/06/15 08:07:06;;;;;;;11.88;5.43;;;;;;;;;;5018413;28;20104;-77
2023/06/15 08:09:31;;;;;;;10.18;5.07;;;;;;;;;;5016984;28;20032;-79
2023/06/15 08:11:56;;;;;;;8.83;5.30;;;;;;;;;;5017530;28;20030;-78
2023/06/15 08:14:22;;;;;;;9.13;5.07;;;;;;;;;;5016854;28;20627;-78
2023/06/15 08:16:47;;;;;;;11.48;5.38;;;;;;;;;;5016461;28;20025;-79
2023/06/15 08:19:13;;;;;;;10.05;5.00;;;;;;;;;;5016172;28;20108;-78
2023/06/15 08:21:41;;;;;;;11.23;4.95;;;;;;;;;;5015659;28;20028;-76
2023/06/15 08:24:06;;;;;;;10.40;4.93;;;;;;;;;;5016751;28;20025;-79
2023/06/15 08:26:32;;;;;;;8.20;4.30;;;;;;;;;;5016536;28;20053;-77
2023/06/15 08:28:57;;;;;;;11.87;4.93;;;;;;;;;;5016941;28;20029;-77
2023/06/15 08:31:22;;;;;;;13.32;5.00;;;;;;;;;;5014929;28;20346;-78
2023/06/15 08:33:48;;;;;;;9.48;4.85;;;;;;;;;;5015518;28;20400;-78
2023/06/15 08:36:13;;;;;;;7.70;4.33;;;;;;;;;;5017849;28;20041;-79
2023/06/15 08:38:38;;;;;;;12.23;4.78;;;;;;;;;;5018279;28;20629;-77
2023/06/15 08:41:04;;;;;;;7.70;4.50;;;;;;;;;;5018590;28;20029;-77
2023/06/15 08:43:32;;;;;;;8.00;4.53;;;;;;;;;;5017560;28;20030;-78
2023/06/15 08:45:59;;;;;;;8.05;4.20;;;;;;;;;;5017859;28;20025;-78
2023/06/15 08:48:27;;;;;;;12.95;4.35;;;;;;;;;;5018171;28;20080;-78
2023/06/15 08:50:52;;;;;;;9.23;3.85;;;;;;;;;;5018356;28;20022;-77
2023/06/15 08:53:20;;;;;;;10.80;3.88;;;;;;;;;;5018201;28;20080;-78
2023/06/15 08:55:46;;;;;;;5.35;3.47;;;;;;;;;;5018396;28;20022;-78
2023/06/15 08:58:11;;;;;;;7.63;3.05;;;;;;;;;;5015961;28;20059;-78
2023/06/15 09:00:36;;;;;;;4.80;3.17;;;;;;;;;;5017962;28;20022;-78
2023/06/15 09:03:04;;;;;;;8.83;3.43;;;;;;;;;;5017485;28;20080;-78
2023/06/15 09:05:29;;;;;;;7.38;3.67;;;;;;;;;;5017486;28;20270;-77
2023/06/15 09:07:55;;;;;;;8.70;3.47;;;;;;;;;;5017905;28;20455;-77
2023/06/15 09:10:23;;;;;;;8.02;3.08;;;;;;;;;;5016898;28;20025;-78
2023/06/15 09:12:51;;;;;;;5.68;3.47;;;;;;;;;;5016647;28;20018;-78
2023/06/15 09:15:21;;;;;;;8.70;3.45;;;;;;;;;;5017258;28;20068;-78
2023/06/15 09:17:51;;;;;;;9.45;3.40;;;;;;;;;;5017898;28;20026;-78
2023/06/15 09:20:20;;;;;;;5.43;3.45;;;;;;;;;;5017770;28;20045;-78
2023/06/15 09:22:46;;;;;;;5.15;3.50;;;;;;;;;;5018846;28;20026;-78
2023/06/15 09:25:19;;;;;;;5.30;3.28;;;;;;;;;;5018133;28;20030;-78
2023/06/15 09:27:55;;;;;;;9.60;3.70;;;;;;;;;;5016261;28;20092;-78
2023/06/15 09:30:22;;;;;;;3.92;3.17;;;;;;;;;;5015798;28;20068;-78
2023/06/15 09:32:48;;;;;;;4.28;3.10;;;;;;;;;;5017797;28;20022;-78
2023/06/15 09:35:13;;;;;;;5.68;3.08;;;;;;;;;;5017494;28;20489;-77
2023/06/15 09:37:39;;;;;;;8.10;3.40;;;;;;;;;;5016960;28;20076;-77
2023/06/15 09:40:07;;;;;;;5.35;3.40;;;;;;;;;;5013384;28;20025;-78
2023/06/15 09:42:34;;;;;;;5.22;3.08;;;;;;;;;;5016348;28;20022;-78
2023/06/15 09:45:00;;;;;;;5.20;3.20;;;;;;;;;;5017452;28;20477;-78
2023/06/15 09:47:30;;;;;;;4.72;3.03;;;;;;;;;;5015304;28;20034;-79
2023/06/15 09:49:55;;;;;;;4.80;3.45;;;;;;;;;;5016282;28;20041;-79
2023/06/15 09:52:21;;;;;;;7.28;3.50;;;;;;;;;;5015578;28;20025;-77
2023/06/15 09:54:47;;;;;;;7.90;3.10;;;;;;;;;;5017017;28;20053;-78
2023/06/15 09:57:13;;;;;;;6.55;3.38;;;;;;;;;;5020964;28;20267;-77
2023/06/15 09:59:38;;;;;;;7.00;3.42;;;;;;;;;;5017590;28;20017;-77
2023/06/15 10:02:08;;;;;;;3.35;2.60;;;;;;;;;;5018754;28;20029;-78
2023/06/15 10:04:36;;;;;;;6.30;2.90;;;;;;;;;;5017604;28;20085;-77
2023/06/15 10:07:03;;;;;;;7.18;3.17;;;;;;;;;;5017588;28;20080;-77
2023/06/15 10:09:35;;;;;;;8.18;3.33;;;;;;;;;;5017221;28;20029;-78
2023/06/15 10:12:12;;;;;;;5.13;3.47;;;;;;;;;;5018082;28;20060;-77
2023/06/15 10:14:47;;;;;;;8.25;3.22;;;;;;;;;;5017726;28;20102;-77
2023/06/15 10:17:16;;;;;;;4.97;3.40;;;;;;;;;;5017469;28;20389;-77
2023/06/15 10:19:43;;;;;;;9.27;3.53;;;;;;;;;;5016761;28;20409;-77
2023/06/15 10:22:15;;;;;;;6.22;3.25;;;;;;;;;;5016770;28;20428;-77
2023/06/15 10:24:43;;;;;;;6.68;3.20;;;;;;;;;;5017106;28;20025;-77
2023/06/15 10:27:08;;;;;;;7.78;3.10;;;;;;;;;;5017304;28;20508;-77
2023/06/15 10:30:02;;;;;;;7.07;3.28;;;;;;;;;;5017608;28;20030;-78
2023/06/15 10:32:59;;;;;;;7.82;2.95;;;;;;;;;;5018963;28;20036;-83
2023/06/15 10:35:42;;;;;;;10.02;3.33;;;;;;;;;;5016330;28;20113;-77
2023/06/15 10:38:30;;;;;;;5.15;2.90;;;;;;;;;;5016596;28;20022;-77
2023/06/15 10:40:56;;;;;;;5.30;2.70;;;;;;;;;;5017526;28;20033;-76
2023/06/15 10:43:26;;;;;;;6.43;2.90;;;;;;;;;;5018904;28;20052;-78
2023/06/15 10:45:52;;;;;;;6.97;2.58;;;;;;;;;;5019060;28;20033;-78
2023/06/15 10:48:27;;;;;;;6.35;3.05;;;;;;;;;;5021385;28;20037;-79
2023/06/15 10:51:04;;;;;;;7.47;3.20;;;;;;;;;;5014427;28;20057;-76
2023/06/15 10:53:36;;;;;;;4.18;2.80;;;;;;;;;;5015254;28;20030;-76
2023/06/15 10:56:09;;;;;;;5.22;2.75;;;;;;;;;;5013966;28;20030;-76
2023/06/15 10:58:52;;;;;;;5.53;3.15;;;;;;;;;;5015470;28;20037;-76
2023/06/15 11:01:20;;;;;;;4.35;2.88;;;;;;;;;;5013946;28;20026;-76
2023/06/15 11:03:45;;;;;;;7.63;3.30;;;;;;;;;;5015883;28;20146;-76
2023/06/15 11:06:18;;;;;;;5.65;3.42;;;;;;;;;;5013588;28;20049;-77
2023/06/15 11:09:00;;;;;;;5.85;3.08;;;;;;;;;;5015292;28;20022;-76
2023/06/15 11:11:31;;;;;;;4.45;3.00;;;;;;;;;;5014987;28;20112;-75
2023/06/15 11:14:00;;;;;;;4.28;2.97;;;;;;;;;;5015418;28;20372;-76
2023/06/15 11:16:45;;;;;;;6.57;2.90;;;;;;;;;;5014784;28;20030;-75
2023/06/15 11:19:11;;;;;;;8.10;3.30;;;;;;;;;;5012845;28;20124;-75
2023/06/15 11:21:40;;;;;;;5.18;3.00;;;;;;;;;;5013672;28;20064;-75
2023/06/15 11:24:06;;;;;;;5.32;2.95;;;;;;;;;;5014648;28;20032;-76
2023/06/15 11:26:32;;;;;;;8.27;3.20;;;;;;;;;;5014625;28;20485;-77
2023/06/15 11:29:01;;;;;;;9.18;3.10;;;;;;;;;;5014504;28;20026;-76
2023/06/15 11:31:26;;;;;;;6.85;2.90;;;;;;;;;;5013216;28;20025;-76
2023/06/15 11:33:52;;;;;;;7.47;3.05;;;;;;;;;;5014584;28;20076;-77
2023/06/15 11:36:18;;;;;;;7.83;3.10;;;;;;;;;;5014375;28;20033;-77
2023/06/15 11:38:43;;;;;;;5.88;3.03;;;;;;;;;;5013230;28;20275;-77
2023/06/15 11:41:10;;;;;;;7.00;4.20;;;;;;;;;;5013272;28;20022;-77
2023/06/15 11:43:46;;;;;;;5.72;2.40;;;;;;;;;;5013081;28;20038;-77
2023/06/15 11:46:13;;;;;;;6.22;2.83;;;;;;;;;;5014463;28;20456;-76
2023/06/15 11:48:42;;;;;;;11.98;2.50;;;;;;;;;;5014214;28;20100;-77
2023/06/15 11:51:08;;;;;;;5.25;2.28;;;;;;;;;;5014129;28;20029;-77
2023/06/15 11:53:39;;;;;;;3.97;2.55;;;;;;;;;;5014158;28;20030;-77
2023/06/15 11:56:08;;;;;;;3.92;2.15;;;;;;;;;;5014394;28;20370;-77
2023/06/15 11:58:33;;;;;;;5.78;2.30;;;;;;;;;;5014457;28;20497;-76
2023/06/15 12:00:58;;;;;;;4.50;2.40;;;;;;;;;;5014339;28;20025;-76
2023/06/15 12:03:25;;;;;;;6.45;2.65;;;;;;;;;;5013706;28;20029;-78
2023/06/15 12:06:00;;;;;;;4.25;2.20;;;;;;;;;;5015304;28;20066;-81
2023/06/15 12:08:26;;;;;;;4.50;2.80;;;;;;;;;;5016411;28;20052;-77
2023/06/15 12:10:52;;;;;;;5.38;2.67;;;;;;;;;;5014453;28;20397;-77
2023/06/15 12:13:18;;;;;;;14.93;3.10;;;;;;;;;;5013358;28;20025;-76
2023/06/15 12:15:46;;;;;;;6.72;2.92;;;;;;;;;;5014289;28;20100;-77
2023/06/15 12:18:12;;;;;;;6.72;2.85;;;;;;;;;;5012643;28;20050;-75
2023/06/15 12:20:37;;;;;;;6.07;2.70;;;;;;;;;;5014569;28;20448;-75
2023/06/15 12:23:04;;;;;;;9.73;3.00;;;;;;;;;;5012645;28;20126;-76
2023/06/15 12:25:46;;;;;;;6.63;3.05;;;;;;;;;;5013571;28;20021;-77
2023/06/15 12:28:16;;;;;;;4.93;3.08;;;;;;;;;;5013544;28;20381;-76
2023/06/15 12:30:42;;;;;;;5.00;2.97;;;;;;;;;;5013628;28;20033;-76
2023/06/15 12:33:27;;;;;;;4.22;2.55;;;;;;;;;;5013652;28;20072;-76
2023/06/15 12:35:52;;;;;;;7.45;2.85;;;;;;;;;;5013380;28;20403;-75
2023/06/15 12:38:19;;;;;;;6.55;2.67;;;;;;;;;;5014007;28;20076;-76
2023/06/15 12:40:44;;;;;;;6.85;2.53;;;;;;;;;;5013559;28;20088;-75
2023/06/15 12:43:09;;;;;;;9.20;2.53;;;;;;;;;;5012107;28;20025;-76
2023/06/15 12:45:36;;;;;;;7.30;2.70;;;;;;;;;;5013491;28;20353;-76
2023/06/15 12:48:02;;;;;;;3.97;2.65;;;;;;;;;;5014062;28;20397;-76
2023/06/15 12:50:30;;;;;;;5.60;2.63;;;;;;;;;;5012077;28;20507;-76
2023/06/15 12:52:57;;;;;;;8.55;2.53;;;;;;;;;;5013499;28;20049;-75
2023/06/15 12:55:23;;;;;;;3.90;2.83;;;;;;;;;;5013426;28;20029;-76
2023/06/15 12:57:48;;;;;;;5.57;2.63;;;;;;;;;;5013563;28;20022;-76
2023/06/15 13:00:14;;;;;;;9.18;2.72;;;;;;;;;;5014766;28;20075;-77
2023/06/15 13:02:42;;;;;;;5.95;2.80;;;;;;;;;;5013934;28;20029;-77
2023/06/15 13:05:08;;;;;;;5.07;2.70;;;;;;;;;;5015902;28;20080;-78
2023/06/15 13:07:34;;;;;;;4.28;2.70;;;;;;;;;;5013708;28;20072;-77
2023/06/15 13:10:00;;;;;;;19.60;3.33;;;;;;;;;;5014711;28;20030;-78
2023/06/15 13:12:25;;;;;;;6.97;2.97;;;;;;;;;;5013977;28;20018;-77
2023/06/15 13:14:54;;;;;;;5.53;2.90;;;;;;;;;;5013430;28;20026;-77
2023/06/15 13:17:19;;;;;;;9.55;5.05;;;;;;;;;;5012283;28;20026;-76
2023/06/15 13:19:45;;;;;;;5.22;2.78;;;;;;;;;;5013808;28;20573;-77
2023/06/15 13:22:10;;;;;;;4.18;2.80;;;;;;;;;;5013255;28;20033;-77
2023/06/15 13:24:37;;;;;;;6.40;3.13;;;;;;;;;;5013177;28;20029;-77
2023/06/15 13:27:03;;;;;;;7.10;3.15;;;;;;;;;;5015279;28;20121;-78
2023/06/15 13:29:28;;;;;;;5.03;2.58;;;;;;;;;;5016496;28;20061;-78
2023/06/15 13:31:54;;;;;;;6.85;2.42;;;;;;;;;;5018606;28;20033;-78
2023/06/15 13:34:20;;;;;;;5.10;2.30;;;;;;;;;;5020796;28;20024;-78
2023/06/15 13:36:45;;;;;;;4.60;2.35;;;;;;;;;;5019535;28;20026;-78
2023/06/15 13:39:11;;;;;;;6.93;2.43;;;;;;;;;;5019620;28;20032;-78
2023/06/15 13:41:36;;;;;;;4.05;2.42;;;;;;;;;;5015860;28;20342;-76
2023/06/15 13:44:02;;;;;;;5.20;2.50;;;;;;;;;;5016696;28;20033;-77
2023/06/15 13:46:27;;;;;;;7.75;2.58;;;;;;;;;;5016293;28;20026;-78
2023/06/15 13:48:53;;;;;;;5.60;2.35;;;;;;;;;;5016291;28;20077;-78
2023/06/15 13:51:18;;;;;;;6.55;2.22;;;;;;;;;;5017554;28;20036;-82
2023/06/15 13:53:43;;;;;;;2.63;2.25;;;;;;;;;;5016839;28;20101;-77
2023/06/15 13:56:09;;;;;;;6.47;2.17;;;;;;;;;;5016840;28;20444;-78
2023/06/15 13:58:34;;;;;;;3.10;2.03;;;;;;;;;;5016504;28;20045;-77
2023/06/15 14:00:59;;;;;;;4.17;2.50;;;;;;;;;;5017241;28;20271;-78
2023/06/15 14:03:24;;;;;;;4.90;1.80;;;;;;;;;;5019636;28;20275;-79
2023/06/15 14:11:58;;;;;;;4.25;2.00;;;;;;;;;;4997338;28;20046;-78
2023/06/15 14:18:41;;;;;;;7.57;1.95;;;;;;;;;;4938912;29;20075;-79
2023/06/15 14:21:06;;;;;;;3.60;1.83;;;;;;;;;;4881469;29;20041;-78
2023/06/15 14:23:45;;;;;;;2.50;2.00;;;;;;;;;;4927726;29;20051;-78
2023/06/15 14:34:44;;;;;;;3.60;2.00;;;;;;;;;;4900582;29;20113;-79
2023/06/15 15:20:21;;;;;;;3.58;2.40;;;;;;;;;;4976342;28;20062;-77
2023/06/15 15:26:42;;;;;;;8.07;2.42;;;;;;;;;;4976301;28;20402;-77
2023/06/15 15:37:03;;;;;;;3.38;2.28;;;;;;;;;;4810752;29;20444;-78
2023/06/15 15:39:34;;;;;;;7.15;2.67;;;;;;;;;;4806722;29;20044;-81
2023/06/15 15:42:02;;;;;;;3.25;2.15;;;;;;;;;;4885777;29;20045;-78
2023/06/15 15:44:27;;;;;;;6.80;2.60;;;;;;;;;;4889104;29;20036;-79
2023/06/15 15:46:52;;;;;;;7.32;2.60;;;;;;;;;;4920751;28;20035;-79
2023/06/15 15:49:18;;;;;;;10.97;2.93;;;;;;;;;;4984230;28;20033;-79
2023/06/15 15:51:43;;;;;;;4.47;3.03;;;;;;;;;;4983203;28;20261;-78
2023/06/15 15:54:10;;;;;;;7.07;2.85;;;;;;;;;;4965742;28;20264;-78